Time;durP1;ratioP1;P1;durP2;ratioP2;P2;SDS_P1;SDS_P2;PMS_P1;PMS_P2;Temp;Humidity;BMP_temperature;BMP_pressure;BME280_temperature;BME280_humidity;BME280_pressure;Samples;Min_cycle;Max_cycle;Signal;HPM_P1;HPM_P2
2022/04/06 00:01:55;;;;;;;27.90;26.70;;;22.40;47.30;;;;;;5050923;28;20819;-50
2022/04/06 00:04:23;;;;;;;27.47;26.37;;;22.40;47.20;;;;;;5050948;28;20448;-50
2022/04/06 00:06:52;;;;;;;28.03;26.83;;;22.40;47.20;;;;;;5050531;28;20480;-51
2022/04/06 00:09:21;;;;;;;26.97;25.87;;;22.40;47.20;;;;;;5050887;28;20452;-50
2022/04/06 00:11:49;;;;;;;28.67;27.57;;;22.40;47.20;;;;;;5050918;28;20447;-50
2022/04/06 00:14:17;;;;;;;26.23;25.23;;;22.40;47.20;;;;;;5050846;28;20447;-48
2022/04/06 00:16:44;;;;;;;27.40;26.30;;;22.40;47.20;;;;;;5050206;28;20839;-51
2022/04/06 00:19:11;;;;;;;28.10;26.80;;;22.30;47.20;;;;;;5050578;28;20444;-50
2022/04/06 00:21:37;;;;;;;26.83;25.73;;;22.30;47.20;;;;;;5051287;28;20479;-50
2022/04/06 00:24:04;;;;;;;27.43;26.33;;;22.30;47.30;;;;;;5054488;28;20451;-50
2022/04/06 00:26:33;;;;;;;27.43;26.27;;;22.30;47.30;;;;;;5053794;28;20469;-50
2022/04/06 00:29:00;;;;;;;27.30;26.20;;;22.40;47.30;;;;;;5054247;28;20444;-50
2022/04/06 00:31:26;;;;;;;28.40;27.10;;;22.40;47.30;;;;;;5054346;28;20802;-50
2022/04/06 00:33:53;;;;;;;27.97;26.77;;;22.40;47.20;;;;;;5054090;28;20445;-48
2022/04/06 00:36:20;;;;;;;27.80;26.67;;;22.40;47.30;;;;;;5053543;28;20472;-51
2022/04/06 00:38:47;;;;;;;26.47;25.37;;;22.40;47.20;;;;;;5054375;28;20451;-56
2022/04/06 00:41:14;;;;;;;25.97;24.97;;;22.30;47.10;;;;;;5053924;28;20441;-56
2022/04/06 00:43:42;;;;;;;26.50;25.40;;;22.40;47.20;;;;;;5054008;28;20456;-56
2022/04/06 00:46:09;;;;;;;28.03;26.93;;;22.30;47.10;;;;;;5053447;28;20831;-56
2022/04/06 00:48:36;;;;;;;26.90;25.70;;;22.30;47.20;;;;;;5053789;28;20943;-55
2022/04/06 00:51:03;;;;;;;27.33;26.23;;;22.30;47.20;;;;;;5053801;28;20451;-49
2022/04/06 00:53:30;;;;;;;26.67;25.57;;;22.30;47.20;;;;;;5053903;28;20800;-50
2022/04/06 00:55:57;;;;;;;27.63;26.53;;;22.30;47.20;;;;;;5053139;28;20468;-50
2022/04/06 00:58:24;;;;;;;29.20;28.00;;;22.30;47.20;;;;;;5053658;28;20448;-51
2022/04/06 01:00:52;;;;;;;27.60;26.50;;;22.30;47.20;;;;;;5053729;28;20444;-51
2022/04/06 01:03:19;;;;;;;27.17;26.07;;;22.30;47.20;;;;;;5053514;28;20488;-48
2022/04/06 01:05:46;;;;;;;28.67;27.57;;;22.30;47.10;;;;;;5053070;28;20479;-51
2022/04/06 01:08:13;;;;;;;27.63;26.43;;;22.40;47.20;;;;;;5053469;28;20440;-49
2022/04/06 01:10:40;;;;;;;26.70;25.60;;;22.40;47.10;;;;;;5053635;28;20452;-50
2022/04/06 01:13:07;;;;;;;28.73;27.60;;;22.40;47.10;;;;;;5053486;28;20436;-50
2022/04/06 01:15:34;;;;;;;26.37;25.37;;;22.30;47.00;;;;;;5052918;28;20464;-51
2022/04/06 01:18:02;;;;;;;27.07;25.97;;;22.30;47.00;;;;;;5053237;28;20444;-49
2022/04/06 01:20:30;;;;;;;28.13;26.93;;;22.30;47.00;;;;;;5053308;28;20515;-50
2022/04/06 01:22:58;;;;;;;26.90;25.80;;;22.30;47.00;;;;;;5053220;28;20534;-50
2022/04/06 01:25:26;;;;;;;26.70;25.60;;;22.20;47.00;;;;;;5052734;28;20828;-50
2022/04/06 01:27:53;;;;;;;27.50;26.40;;;22.20;47.10;;;;;;5053148;28;20864;-49
2022/04/06 01:30:19;;;;;;;28.37;27.00;;;22.20;47.10;;;;;;5053238;28;20548;-48
2022/04/06 01:32:46;;;;;;;26.37;25.30;;;22.30;47.10;;;;;;5052671;28;20445;-51
2022/04/06 01:35:13;;;;;;;25.77;24.77;;;22.30;47.10;;;;;;5052201;28;20449;-49
2022/04/06 01:37:40;;;;;;;27.67;26.57;;;22.30;47.10;;;;;;5052721;28;20808;-48
2022/04/06 01:40:09;;;;;;;33.07;31.87;;;22.30;47.00;;;;;;5052855;28;20448;-52
2022/04/06 01:42:36;;;;;;;27.70;26.50;;;22.30;47.00;;;;;;5052811;28;20484;-49
2022/04/06 01:45:03;;;;;;;27.57;26.40;;;22.30;46.90;;;;;;5052427;28;20456;-49
2022/04/06 01:47:29;;;;;;;27.10;26.00;;;22.30;47.00;;;;;;5052597;28;20444;-50
2022/04/06 01:52:40;;;;;;;27.30;26.20;;;22.20;46.90;;;;;;5052844;28;20412;-49
2022/04/06 01:55:10;;;;;;;25.60;24.60;;;22.20;46.90;;;;;;5052233;28;20461;-50
2022/04/06 01:57:37;;;;;;;26.10;25.03;;;22.20;47.00;;;;;;5052377;28;20471;-48
2022/04/06 02:00:09;;;;;;;26.13;25.13;;;22.20;47.00;;;;;;5052598;28;20452;-50
2022/04/06 02:02:36;;;;;;;25.90;24.90;;;22.20;47.00;;;;;;5052416;28;20558;-52
2022/04/06 02:05:03;;;;;;;26.20;25.20;;;22.20;47.10;;;;;;5052271;28;20447;-49
2022/04/06 02:07:30;;;;;;;27.00;25.87;;;22.20;47.00;;;;;;5052251;28;20444;-48
2022/04/06 02:09:58;;;;;;;27.67;26.53;;;22.30;47.00;;;;;;5052303;28;20931;-51
2022/04/06 02:12:27;;;;;;;27.63;26.53;;;22.30;47.00;;;;;;5052321;28;20445;-50
2022/04/06 02:14:54;;;;;;;26.40;25.30;;;22.30;46.90;;;;;;5051991;28;20450;-50
2022/04/06 02:17:21;;;;;;;28.03;26.80;;;22.30;46.90;;;;;;5051973;28;20472;-49
2022/04/06 02:19:48;;;;;;;26.67;25.57;;;22.30;46.80;;;;;;5052189;28;20970;-50
2022/04/06 02:22:16;;;;;;;27.80;26.70;;;22.20;46.80;;;;;;5052036;28;20571;-49
2022/04/06 02:24:43;;;;;;;27.27;26.17;;;22.20;46.80;;;;;;5051861;28;20990;-52
2022/04/06 02:27:10;;;;;;;28.17;27.07;;;22.20;46.80;;;;;;5051824;28;20507;-48
2022/04/06 02:29:39;;;;;;;26.40;25.40;;;22.20;46.90;;;;;;5052037;28;20455;-52
2022/04/06 02:32:07;;;;;;;26.27;25.27;;;22.10;46.90;;;;;;5051913;28;20815;-49
2022/04/06 02:34:34;;;;;;;26.93;25.93;;;22.10;47.00;;;;;;5051721;28;20812;-48
2022/04/06 02:37:01;;;;;;;26.47;25.47;;;22.10;47.00;;;;;;5051657;28;20475;-49
2022/04/06 02:39:28;;;;;;;27.37;26.37;;;22.20;47.10;;;;;;5051806;28;20444;-48
2022/04/06 02:41:55;;;;;;;26.53;25.53;;;22.20;47.00;;;;;;5051764;28;20451;-48
2022/04/06 02:44:21;;;;;;;27.00;25.90;;;22.20;46.90;;;;;;5051241;28;20452;-50
2022/04/06 02:46:49;;;;;;;29.03;27.93;;;22.20;46.90;;;;;;5051401;28;20464;-50
2022/04/06 02:49:16;;;;;;;27.13;26.13;;;22.20;46.80;;;;;;5051684;28;20461;-48
2022/04/06 02:51:43;;;;;;;27.70;26.70;;;22.20;46.80;;;;;;5051692;28;20448;-49
2022/04/06 02:54:10;;;;;;;28.07;27.00;;;22.20;46.80;;;;;;5051335;28;20448;-48
2022/04/06 02:56:37;;;;;;;27.80;26.70;;;22.20;46.80;;;;;;5051011;28;20480;-50
2022/04/06 02:59:03;;;;;;;29.50;28.33;;;22.20;47.30;;;;;;5051616;28;20448;-48
2022/04/06 03:01:30;;;;;;;30.17;29.03;;;22.20;46.80;;;;;;5051429;28;20833;-48
2022/04/06 03:03:59;;;;;;;29.17;28.07;;;22.10;46.80;;;;;;5051280;28;20529;-50
2022/04/06 03:06:25;;;;;;;28.30;27.20;;;22.10;46.80;;;;;;5051194;28;20463;-50
2022/04/06 03:08:52;;;;;;;29.93;28.63;;;22.10;46.90;;;;;;5051473;28;20456;-49
2022/04/06 03:11:19;;;;;;;28.70;27.60;;;22.10;46.80;;;;;;5051422;28;20812;-50
2022/04/06 03:13:45;;;;;;;29.27;28.07;;;22.10;46.80;;;;;;5051160;28;20445;-48
2022/04/06 03:16:12;;;;;;;30.13;29.03;;;22.20;46.80;;;;;;5051094;28;20476;-49
2022/04/06 03:18:39;;;;;;;28.63;27.50;;;22.20;46.90;;;;;;5051390;28;20931;-49
2022/04/06 03:21:07;;;;;;;28.50;27.40;;;22.20;46.80;;;;;;5051365;28;20455;-52
2022/04/06 03:23:34;;;;;;;28.60;27.50;;;22.20;46.70;;;;;;5050944;28;20480;-50
2022/04/06 03:26:00;;;;;;;29.60;28.50;;;22.20;46.70;;;;;;5051040;28;20469;-51
2022/04/06 03:28:27;;;;;;;28.77;27.67;;;22.20;46.70;;;;;;5051301;28;20471;-50
2022/04/06 03:30:54;;;;;;;29.00;27.90;;;22.10;46.60;;;;;;5051081;28;20444;-50
2022/04/06 03:33:20;;;;;;;28.10;27.00;;;22.10;46.70;;;;;;5050994;28;20448;-49
2022/04/06 03:35:47;;;;;;;28.20;27.10;;;22.10;46.80;;;;;;5050980;28;20797;-50
2022/04/06 03:38:15;;;;;;;28.47;27.37;;;22.10;46.80;;;;;;5051097;28;20449;-49
2022/04/06 03:40:42;;;;;;;28.10;27.00;;;22.10;46.80;;;;;;5051139;28;20449;-48
2022/04/06 03:43:09;;;;;;;30.00;28.90;;;22.10;46.80;;;;;;5050816;28;20480;-50
2022/04/06 03:45:36;;;;;;;27.20;26.20;;;22.10;46.80;;;;;;5050774;28;20808;-50
2022/04/06 03:48:02;;;;;;;28.57;27.47;;;22.10;46.70;;;;;;5050973;28;20452;-51
2022/04/06 03:50:29;;;;;;;28.97;27.87;;;22.20;46.70;;;;;;5051054;28;20444;-50
2022/04/06 03:52:56;;;;;;;28.93;27.73;;;22.20;46.70;;;;;;5050718;28;20456;-50
2022/04/06 03:55:24;;;;;;;28.27;27.17;;;22.20;46.70;;;;;;5050752;28;20483;-51
2022/04/06 03:57:51;;;;;;;29.13;28.03;;;22.20;46.70;;;;;;5053559;28;20448;-51
2022/04/06 04:00:18;;;;;;;31.53;30.20;;;22.20;47.20;;;;;;5054507;28;20466;-50
2022/04/06 04:02:45;;;;;;;32.73;31.33;;;22.20;46.70;;;;;;5054728;28;20484;-51
2022/04/06 04:05:13;;;;;;;32.07;30.87;;;22.20;46.70;;;;;;5054623;28;20452;-50
2022/04/06 04:07:40;;;;;;;30.97;29.67;;;22.20;46.80;;;;;;5054404;28;20450;-48
2022/04/06 04:10:08;;;;;;;31.90;30.70;;;22.20;46.80;;;;;;5054572;28;20440;-50
2022/04/06 04:12:39;;;;;;;32.33;30.93;;;22.40;46.80;;;;;;5054604;28;20448;-49
2022/04/06 04:15:06;;;;;;;31.93;30.53;;;22.50;46.70;;;;;;5054442;28;20448;-49
2022/04/06 04:17:33;;;;;;;31.73;30.53;;;22.50;46.40;;;;;;5054396;28;20460;-50
2022/04/06 04:20:00;;;;;;;31.37;30.10;;;22.60;46.40;;;;;;5054194;28;20463;-50
2022/04/06 04:22:27;;;;;;;30.93;29.73;;;22.70;46.20;;;;;;5054322;28;20802;-50
2022/04/06 04:24:53;;;;;;;31.73;30.43;;;22.70;46.10;;;;;;5054422;28;20987;-50
2022/04/06 04:27:20;;;;;;;31.50;30.30;;;22.80;46.00;;;;;;5054041;28;20464;-48
2022/04/06 04:29:48;;;;;;;32.30;31.00;;;22.80;45.90;;;;;;5054003;28;20445;-50
2022/04/06 04:32:16;;;;;;;32.90;31.70;;;22.80;45.70;;;;;;5054172;28;20445;-51
2022/04/06 04:34:43;;;;;;;29.97;28.87;;;22.90;45.70;;;;;;5054163;28;20448;-53
2022/04/06 04:37:10;;;;;;;31.90;30.60;;;22.90;45.80;;;;;;5053882;28;20480;-49
2022/04/06 04:39:36;;;;;;;33.97;32.33;;;22.90;45.90;;;;;;5053773;28;20772;-48
2022/04/06 04:42:04;;;;;;;31.47;30.17;;;22.90;46.10;;;;;;5054032;28;20445;-50
2022/04/06 04:44:31;;;;;;;30.40;29.10;;;22.90;46.30;;;;;;5053905;28;20526;-50
2022/04/06 04:47:00;;;;;;;32.40;30.50;;;22.90;46.60;;;;;;5053664;28;20464;-49
2022/04/06 04:49:26;;;;;;;29.90;28.60;;;22.90;47.00;;;;;;5053447;28;20475;-48
2022/04/06 04:51:53;;;;;;;29.20;27.50;;;22.90;48.10;;;;;;5053822;28;20448;-48
2022/04/06 04:54:23;;;;;;;28.80;27.30;;;22.90;50.90;;;;;;5053831;28;20810;-48
2022/04/06 04:56:51;;;;;;;30.07;28.10;;;22.90;50.90;;;;;;5053505;28;20538;-48
2022/04/06 04:59:18;;;;;;;31.40;29.60;;;22.90;50.30;;;;;;5052037;28;20833;-49
2022/04/06 05:01:45;;;;;;;33.27;31.57;;;22.90;49.70;;;;;;5053207;28;20448;-49
2022/04/06 05:04:13;;;;;;;31.20;29.70;;;22.90;49.30;;;;;;5053596;28;20487;-49
2022/04/06 05:06:39;;;;;;;29.40;27.90;;;22.90;49.00;;;;;;5053358;28;20972;-48
2022/04/06 05:09:06;;;;;;;31.10;29.50;;;22.90;48.70;;;;;;5053531;28;20937;-49
2022/04/06 05:11:33;;;;;;;32.80;30.40;;;22.90;48.50;;;;;;5053477;28;20455;-47
2022/04/06 05:14:00;;;;;;;31.87;30.37;;;22.90;48.40;;;;;;5053284;28;20445;-50
2022/04/06 05:16:26;;;;;;;30.73;29.53;;;22.90;48.10;;;;;;5053287;28;20464;-47
2022/04/06 05:18:54;;;;;;;30.53;29.07;;;22.80;47.90;;;;;;5053276;28;20952;-50
2022/04/06 05:21:23;;;;;;;31.77;30.37;;;22.80;47.70;;;;;;5053234;28;21009;-50
2022/04/06 05:23:49;;;;;;;32.50;30.90;;;22.80;47.60;;;;;;5053205;28;20487;-49
2022/04/06 05:26:16;;;;;;;34.27;32.57;;;22.80;47.50;;;;;;5052876;28;20460;-48
2022/04/06 05:28:43;;;;;;;31.37;29.97;;;22.80;47.40;;;;;;5053062;28;20452;-49
2022/04/06 05:31:10;;;;;;;30.20;28.77;;;22.80;47.30;;;;;;5053079;28;20452;-49
2022/04/06 05:33:36;;;;;;;31.70;30.20;;;22.80;47.20;;;;;;5052926;28;20447;-48
2022/04/06 05:36:04;;;;;;;30.97;29.57;;;22.80;47.20;;;;;;5052779;28;20464;-48
2022/04/06 05:38:34;;;;;;;31.47;30.07;;;22.80;47.10;;;;;;5052942;28;20448;-49
2022/04/06 05:41:01;;;;;;;30.80;29.27;;;22.80;47.00;;;;;;5052959;28;20551;-47
2022/04/06 05:43:28;;;;;;;30.33;29.03;;;22.80;46.90;;;;;;5052713;28;20472;-48
2022/04/06 05:45:55;;;;;;;30.57;29.20;;;22.80;47.00;;;;;;5052535;28;20465;-48
2022/04/06 05:48:21;;;;;;;30.10;28.90;;;22.80;46.80;;;;;;5052581;28;20444;-48
2022/04/06 05:50:48;;;;;;;31.10;29.90;;;22.80;46.80;;;;;;5052664;28;20451;-48
2022/04/06 05:53:15;;;;;;;30.23;28.73;;;22.80;46.60;;;;;;5052593;28;20456;-47
2022/04/06 05:55:47;;;;;;;32.43;31.03;;;22.80;46.60;;;;;;5052799;28;20567;-51
2022/04/06 05:58:14;;;;;;;30.33;28.83;;;22.80;46.60;;;;;;5053210;28;20448;-50
2022/04/06 06:00:41;;;;;;;32.67;31.07;;;22.80;46.60;;;;;;5053014;28;20795;-48
2022/04/06 06:03:07;;;;;;;29.10;27.80;;;22.80;46.50;;;;;;5052845;28;20941;-50
2022/04/06 06:05:34;;;;;;;29.60;28.20;;;22.80;46.50;;;;;;5053050;28;20992;-48
2022/04/06 06:08:01;;;;;;;32.17;30.57;;;22.80;46.40;;;;;;5053338;28;20503;-48
2022/04/06 06:10:28;;;;;;;32.20;30.47;;;22.80;46.30;;;;;;5053768;28;20441;-48
2022/04/06 06:12:56;;;;;;;30.60;29.40;;;22.90;46.30;;;;;;5053540;28;20453;-48
2022/04/06 06:15:23;;;;;;;30.97;29.67;;;22.90;46.20;;;;;;5052902;28;20558;-51
2022/04/06 06:17:49;;;;;;;29.47;27.97;;;22.90;46.10;;;;;;5052701;28;20449;-51
2022/04/06 06:20:16;;;;;;;30.50;29.30;;;22.90;46.00;;;;;;5052177;28;20823;-54
2022/04/06 06:22:43;;;;;;;31.17;29.70;;;22.90;45.90;;;;;;5052868;28;20449;-48
2022/04/06 06:25:10;;;;;;;30.40;29.20;;;22.90;45.80;;;;;;5053183;28;20484;-50
2022/04/06 06:27:40;;;;;;;29.13;27.93;;;22.90;45.80;;;;;;5053162;28;20447;-48
2022/04/06 06:30:12;;;;;;;30.60;29.30;;;22.90;45.70;;;;;;5053372;28;20528;-48
2022/04/06 06:32:38;;;;;;;28.33;27.03;;;22.90;45.70;;;;;;5052366;28;20448;-50
2022/04/06 06:35:08;;;;;;;28.80;27.50;;;22.90;46.20;;;;;;5052395;28;20440;-49
2022/04/06 06:37:34;;;;;;;27.90;26.40;;;22.90;45.60;;;;;;5052101;28;20823;-47
2022/04/06 06:40:01;;;;;;;28.80;27.30;;;22.90;45.50;;;;;;5051802;28;20472;-49
2022/04/06 06:42:28;;;;;;;30.67;29.37;;;23.00;45.50;;;;;;5051832;28;20443;-47
2022/04/06 06:44:54;;;;;;;29.20;28.00;;;22.90;45.40;;;;;;5051965;28;20492;-47
2022/04/06 06:47:23;;;;;;;30.37;28.87;;;22.90;45.30;;;;;;5051402;28;20460;-48
2022/04/06 06:49:49;;;;;;;29.00;27.80;;;22.90;45.20;;;;;;5051655;28;20455;-49
2022/04/06 06:52:16;;;;;;;29.00;27.57;;;22.90;45.30;;;;;;5051619;28;20801;-47
2022/04/06 06:54:43;;;;;;;27.60;26.50;;;22.90;45.30;;;;;;5051592;28;20812;-47
2022/04/06 06:57:11;;;;;;;29.73;28.53;;;22.90;45.30;;;;;;5051182;28;20483;-48
2022/04/06 06:59:38;;;;;;;29.00;27.70;;;22.90;45.20;;;;;;5051463;28;20448;-48
2022/04/06 07:02:05;;;;;;;30.10;28.77;;;22.80;45.20;;;;;;5051722;28;20451;-52
2022/04/06 07:04:33;;;;;;;31.30;29.87;;;22.90;45.20;;;;;;5051446;28;20488;-51
2022/04/06 07:07:00;;;;;;;28.63;27.40;;;22.80;45.20;;;;;;5051289;28;20472;-51
2022/04/06 07:09:27;;;;;;;29.50;28.30;;;22.90;45.20;;;;;;5051491;28;20447;-51
2022/04/06 07:11:53;;;;;;;28.17;26.97;;;22.90;45.10;;;;;;5051358;28;20947;-48
2022/04/06 07:14:20;;;;;;;29.70;28.50;;;22.80;45.10;;;;;;5051443;28;20447;-48
2022/04/06 07:16:47;;;;;;;29.20;27.90;;;22.80;45.10;;;;;;5051051;28;20483;-48
2022/04/06 07:19:14;;;;;;;30.83;29.53;;;22.90;45.10;;;;;;5051312;28;20440;-50
2022/04/06 07:21:42;;;;;;;29.23;28.03;;;22.80;45.10;;;;;;5051221;28;20794;-47
2022/04/06 07:24:09;;;;;;;30.37;29.07;;;22.70;45.10;;;;;;5051123;28;20492;-48
2022/04/06 07:26:36;;;;;;;29.43;28.13;;;22.80;45.20;;;;;;5050967;28;20472;-47
2022/04/06 07:29:03;;;;;;;26.97;25.73;;;22.70;45.00;;;;;;5051232;28;20444;-48
2022/04/06 07:31:29;;;;;;;30.00;28.80;;;22.70;45.10;;;;;;5051638;28;20452;-47
2022/04/06 07:33:56;;;;;;;29.30;28.10;;;22.80;45.10;;;;;;5055250;28;20916;-47
2022/04/06 07:36:23;;;;;;;30.80;29.47;;;22.80;45.00;;;;;;5054971;28;20472;-48
2022/04/06 07:38:51;;;;;;;28.70;27.50;;;22.70;45.00;;;;;;5055168;28;20444;-48
2022/04/06 07:41:18;;;;;;;29.93;28.63;;;22.70;44.90;;;;;;5055221;28;20459;-47
2022/04/06 07:43:45;;;;;;;29.10;27.80;;;22.70;45.00;;;;;;5054998;28;20573;-48
2022/04/06 07:46:12;;;;;;;28.33;27.13;;;22.70;45.10;;;;;;5054846;28;20475;-47
2022/04/06 07:48:41;;;;;;;30.00;28.80;;;22.70;45.00;;;;;;5055023;28;20448;-48
2022/04/06 07:51:08;;;;;;;30.33;29.03;;;22.70;45.00;;;;;;5054975;28;20543;-48
2022/04/06 07:53:35;;;;;;;30.13;28.93;;;22.80;44.90;;;;;;5054887;28;20486;-47
2022/04/06 07:56:03;;;;;;;29.07;27.77;;;22.80;44.90;;;;;;5054493;28;20476;-47
2022/04/06 07:58:30;;;;;;;29.93;28.73;;;22.80;44.90;;;;;;5054997;28;20455;-47
2022/04/06 08:00:57;;;;;;;29.90;28.60;;;22.90;44.70;;;;;;5054767;28;20471;-47
2022/04/06 08:03:23;;;;;;;29.07;27.87;;;22.90;44.60;;;;;;5054767;28;20444;-48
2022/04/06 08:05:51;;;;;;;29.53;28.33;;;23.00;44.60;;;;;;5054559;28;20861;-48
2022/04/06 08:08:17;;;;;;;29.53;28.27;;;23.00;44.40;;;;;;5054736;28;20800;-49
2022/04/06 08:10:44;;;;;;;31.40;30.10;;;23.10;44.30;;;;;;5054553;28;20456;-47
2022/04/06 08:13:12;;;;;;;29.93;28.73;;;23.10;44.10;;;;;;5054836;28;20451;-47
2022/04/06 08:15:39;;;;;;;27.80;26.50;;;23.20;44.10;;;;;;5054277;28;20822;-47
2022/04/06 08:18:07;;;;;;;28.60;27.30;;;23.20;44.10;;;;;;5054552;28;20445;-47
2022/04/06 08:20:34;;;;;;;29.17;27.87;;;23.20;44.00;;;;;;5054400;28;21023;-47
2022/04/06 08:23:01;;;;;;;29.37;28.17;;;23.20;43.90;;;;;;5054411;28;20448;-47
2022/04/06 08:25:28;;;;;;;29.30;28.10;;;23.20;43.80;;;;;;5054039;28;20855;-47
2022/04/06 08:27:55;;;;;;;28.50;27.33;;;23.20;43.70;;;;;;5054258;28;20466;-47
2022/04/06 08:30:23;;;;;;;28.97;27.67;;;23.20;43.70;;;;;;5054234;28;20931;-47
2022/04/06 08:32:51;;;;;;;30.00;28.70;;;23.20;43.60;;;;;;5054233;28;20476;-47
2022/04/06 08:35:18;;;;;;;29.37;28.17;;;23.20;43.60;;;;;;5054034;28;20453;-48
2022/04/06 08:37:45;;;;;;;27.80;26.70;;;23.20;43.60;;;;;;5054006;28;20480;-47
2022/04/06 08:40:13;;;;;;;27.63;26.53;;;23.30;43.70;;;;;;5054122;28;20440;-47
2022/04/06 08:42:40;;;;;;;28.37;27.27;;;23.30;43.70;;;;;;5053645;28;20448;-47
2022/04/06 08:45:09;;;;;;;26.47;25.37;;;23.30;43.60;;;;;;5053889;28;20480;-47
2022/04/06 08:47:37;;;;;;;27.23;26.13;;;23.30;43.60;;;;;;5053727;28;20450;-47
2022/04/06 08:50:06;;;;;;;27.30;26.30;;;23.30;43.60;;;;;;5053909;28;20809;-47
2022/04/06 08:52:33;;;;;;;27.10;26.00;;;23.30;43.60;;;;;;5053772;28;20456;-50
2022/04/06 08:55:01;;;;;;;26.37;25.27;;;23.30;43.50;;;;;;5053711;28;20451;-47
2022/04/06 08:57:28;;;;;;;26.30;25.30;;;23.30;43.40;;;;;;5053487;28;20480;-47
2022/04/06 08:59:55;;;;;;;27.30;26.10;;;23.30;43.30;;;;;;5053623;28;20444;-48
2022/04/06 09:02:23;;;;;;;26.60;25.60;;;23.40;43.40;;;;;;5053778;28;20440;-47
2022/04/06 09:04:55;;;;;;;28.27;27.00;;;23.40;43.30;;;;;;5053564;28;20476;-47
2022/04/06 09:07:22;;;;;;;27.40;26.30;;;23.40;43.20;;;;;;5053244;28;20464;-47
2022/04/06 09:09:51;;;;;;;28.03;26.93;;;23.50;43.10;;;;;;5053522;28;20444;-48
2022/04/06 09:12:20;;;;;;;26.67;25.57;;;23.60;43.10;;;;;;5053461;28;20444;-47
2022/04/06 09:14:48;;;;;;;28.20;27.10;;;23.60;43.00;;;;;;5053386;28;20445;-47
2022/04/06 09:17:19;;;;;;;29.50;28.30;;;23.60;42.90;;;;;;5053093;28;20798;-49
2022/04/06 09:19:49;;;;;;;29.23;28.03;;;23.60;42.80;;;;;;5053469;28;20476;-48
2022/04/06 09:22:17;;;;;;;28.10;27.00;;;23.60;42.80;;;;;;5053178;28;20448;-47
2022/04/06 09:24:44;;;;;;;29.13;28.03;;;23.60;42.70;;;;;;5053165;28;20527;-47
2022/04/06 09:27:11;;;;;;;28.87;27.77;;;23.60;42.70;;;;;;5052926;28;20473;-47
2022/04/06 09:29:38;;;;;;;27.20;26.20;;;23.60;43.30;;;;;;5053105;28;20447;-48
2022/04/06 09:32:10;;;;;;;28.50;27.40;;;23.60;42.80;;;;;;5053055;28;20502;-48
2022/04/06 09:34:37;;;;;;;29.00;27.80;;;23.60;42.80;;;;;;5052987;28;20440;-47
2022/04/06 09:37:24;;;;;;;28.80;27.60;;;23.60;42.70;;;;;;5052686;28;20473;-48
2022/04/06 09:39:51;;;;;;;28.90;27.80;;;23.60;42.70;;;;;;5053020;28;20451;-47
2022/04/06 09:42:22;;;;;;;29.53;28.33;;;23.60;42.70;;;;;;5052895;28;20449;-47
2022/04/06 09:47:52;;;;;;;28.63;27.43;;;23.60;42.80;;;;;;4988690;28;20430;-47
2022/04/06 09:50:20;;;;;;;29.13;28.03;;;23.60;42.60;;;;;;4991138;28;20454;-47
2022/04/06 09:52:49;;;;;;;28.93;27.83;;;23.50;42.60;;;;;;5010277;28;20528;-48
2022/04/06 09:55:20;;;;;;;29.00;27.90;;;23.50;42.90;;;;;;5031694;28;20987;-49
2022/04/06 09:57:50;;;;;;;29.70;28.40;;;23.40;43.80;;;;;;5050091;28;20544;-48
2022/04/06 10:00:19;;;;;;;29.00;27.80;;;23.40;44.70;;;;;;5052839;28;20448;-48
2022/04/06 10:02:49;;;;;;;30.93;29.67;;;23.30;45.00;;;;;;5052623;28;20444;-50
2022/04/06 10:05:19;;;;;;;30.90;29.60;;;23.20;45.10;;;;;;5052037;28;20476;-49
2022/04/06 10:07:48;;;;;;;30.57;29.20;;;23.20;45.20;;;;;;5051660;28;20499;-48
2022/04/06 10:10:15;;;;;;;29.50;28.30;;;23.10;45.30;;;;;;5052483;28;20445;-51
2022/04/06 10:12:42;;;;;;;30.53;29.33;;;23.10;45.50;;;;;;5052311;28;20440;-48
2022/04/06 10:15:09;;;;;;;27.97;26.87;;;23.10;45.50;;;;;;5051459;28;20452;-48
2022/04/06 10:17:36;;;;;;;29.60;28.30;;;23.10;45.70;;;;;;5051962;28;20959;-48
2022/04/06 10:20:25;;;;;;;29.40;28.20;;;23.20;45.80;;;;;;5052067;28;20446;-51
2022/04/06 10:23:06;;;;;;;30.53;29.30;;;23.20;45.80;;;;;;5052147;28;20444;-48
2022/04/06 10:25:48;;;;;;;29.33;28.13;;;23.30;45.90;;;;;;5050509;28;20508;-50
2022/04/06 10:28:17;;;;;;;29.20;28.00;;;23.30;46.00;;;;;;5052003;28;20443;-49
2022/04/06 10:31:15;;;;;;;30.03;28.83;;;23.30;45.70;;;;;;5050601;28;20460;-49
2022/04/06 10:33:41;;;;;;;30.00;28.80;;;23.40;45.90;;;;;;5051545;28;20494;-48
2022/04/06 10:36:23;;;;;;;29.57;28.37;;;23.60;45.60;;;;;;5051427;28;20980;-48
2022/04/06 10:39:17;;;;;;;28.87;27.67;;;23.70;45.30;;;;;;5052080;28;20468;-48
2022/04/06 10:42:15;;;;;;;29.30;28.20;;;23.80;44.80;;;;;;5051676;28;20455;-48
2022/04/06 10:44:43;;;;;;;29.87;28.67;;;23.80;45.00;;;;;;5051790;28;20929;-48
2022/04/06 10:47:12;;;;;;;28.63;27.43;;;23.90;44.30;;;;;;5051343;28;21002;-48
2022/04/06 10:49:39;;;;;;;28.40;27.20;;;23.90;44.20;;;;;;5051662;28;20444;-48
2022/04/06 10:52:22;;;;;;;30.17;28.93;;;23.90;44.00;;;;;;5051763;28;20456;-48
2022/04/06 10:54:52;;;;;;;28.43;27.30;;;24.00;44.00;;;;;;5051571;28;20964;-48
2022/04/06 10:57:19;;;;;;;29.40;28.13;;;24.00;43.60;;;;;;5051449;28;20518;-48
2022/04/06 11:00:15;;;;;;;29.80;28.50;;;24.00;43.60;;;;;;5051514;28;20472;-48
2022/04/06 11:02:50;;;;;;;30.50;29.20;;;24.10;43.50;;;;;;5051530;28;20440;-48
2022/04/06 11:05:43;;;;;;;28.77;27.57;;;24.10;43.30;;;;;;5051094;28;20553;-48
2022/04/06 11:11:27;;;;;;;30.93;29.73;;;24.20;43.10;;;;;;5051533;28;20416;-51
2022/04/06 11:13:56;;;;;;;30.00;28.80;;;24.20;42.90;;;;;;5051517;28;20436;-48
2022/04/06 11:16:44;;;;;;;30.47;29.17;;;24.20;42.80;;;;;;5051030;28;20467;-48
2022/04/06 11:19:12;;;;;;;30.67;29.37;;;24.20;42.80;;;;;;5051326;28;20444;-48
2022/04/06 11:21:51;;;;;;;31.27;29.97;;;24.20;42.70;;;;;;5051348;28;20443;-50
2022/04/06 11:24:23;;;;;;;31.43;30.13;;;24.20;42.60;;;;;;5051175;28;20448;-50
2022/04/06 11:26:51;;;;;;;30.20;29.00;;;24.20;42.50;;;;;;5050980;28;20488;-48
2022/04/06 11:29:20;;;;;;;30.30;29.10;;;24.30;42.40;;;;;;5051211;28;20447;-47
2022/04/06 11:31:55;;;;;;;32.50;31.20;;;24.30;42.30;;;;;;5051299;28;20938;-48
2022/04/06 11:34:35;;;;;;;31.90;30.60;;;24.30;42.30;;;;;;5051110;28;20446;-48
2022/04/06 11:37:04;;;;;;;31.17;29.90;;;24.30;42.20;;;;;;5050766;28;20998;-48
2022/04/06 11:39:31;;;;;;;30.17;28.97;;;24.30;42.10;;;;;;5051127;28;20813;-50
2022/04/06 11:42:00;;;;;;;30.00;28.80;;;24.30;42.10;;;;;;5051129;28;20952;-49
2022/04/06 11:44:28;;;;;;;30.70;29.50;;;24.20;42.60;;;;;;5051057;28;20455;-49
2022/04/06 11:46:55;;;;;;;31.03;29.83;;;24.20;42.10;;;;;;5050847;28;20484;-49
2022/04/06 11:49:24;;;;;;;29.80;28.60;;;24.10;42.20;;;;;;5051101;28;20855;-48
2022/04/06 11:51:52;;;;;;;31.90;30.70;;;24.10;42.10;;;;;;5050931;28;20448;-48
2022/04/06 11:54:19;;;;;;;30.43;29.23;;;24.10;42.20;;;;;;5050985;28;20476;-48
2022/04/06 11:56:50;;;;;;;30.30;29.10;;;24.10;42.20;;;;;;5051170;28;20499;-48
2022/04/06 11:59:18;;;;;;;29.90;28.50;;;24.00;42.10;;;;;;5051007;28;20444;-50
2022/04/06 12:01:47;;;;;;;30.10;28.80;;;24.00;42.20;;;;;;5050872;28;20452;-49
2022/04/06 12:04:16;;;;;;;30.13;28.93;;;23.90;42.30;;;;;;5050898;28;20876;-48
2022/04/06 12:06:43;;;;;;;29.17;27.97;;;23.90;42.40;;;;;;5050597;28;20567;-48
2022/04/06 12:09:10;;;;;;;30.47;29.27;;;24.00;42.40;;;;;;5050864;28;20448;-50
2022/04/06 12:11:39;;;;;;;30.50;29.30;;;24.10;42.30;;;;;;5050857;28;20811;-48
2022/04/06 12:14:10;;;;;;;28.80;27.70;;;24.10;42.20;;;;;;5051015;28;20444;-48
2022/04/06 12:16:37;;;;;;;30.50;29.30;;;24.20;42.30;;;;;;5050631;28;20460;-48
2022/04/06 12:19:12;;;;;;;30.60;29.40;;;24.20;42.10;;;;;;5053740;28;20807;-48
2022/04/06 12:21:41;;;;;;;29.33;28.03;;;24.20;42.10;;;;;;5054471;28;20440;-48
2022/04/06 12:24:08;;;;;;;29.60;28.40;;;24.20;42.10;;;;;;5054308;28;20460;-48
2022/04/06 12:26:41;;;;;;;31.97;30.77;;;24.20;42.00;;;;;;5054040;28;20488;-48
2022/04/06 12:29:14;;;;;;;29.80;28.60;;;24.20;42.00;;;;;;5054242;28;20451;-48
2022/04/06 12:31:42;;;;;;;31.27;30.07;;;24.20;42.00;;;;;;5054211;28;20448;-48
2022/04/06 12:34:26;;;;;;;30.17;28.97;;;24.10;41.90;;;;;;5054286;28;20845;-49
2022/04/06 12:36:53;;;;;;;29.70;28.50;;;24.10;42.00;;;;;;5053935;28;20511;-50
2022/04/06 12:39:20;;;;;;;30.20;29.00;;;24.10;42.00;;;;;;5054140;28;20441;-48
2022/04/06 12:41:58;;;;;;;30.50;29.30;;;24.10;42.10;;;;;;5054176;28;20467;-48
2022/04/06 12:44:26;;;;;;;30.20;29.00;;;24.10;42.00;;;;;;5053987;28;20452;-48